ADDS METAR Data INFO
IDs: Format: Raw Decoded Include TAF

Data at: 1345 UTC 21 Nov 2017

KDKR 211330Z AUTO 00000KT 10SM 10/07 A2997 RMK AO2
KDKR 211310Z AUTO 13004KT 10SM 09/07 A2996 RMK AO2
KDKR 211250Z AUTO 14006KT 10SM 09/07 A2995 RMK AO2
KDKR 211230Z AUTO 13004KT 10SM 09/06 A2995 RMK AO2
KDKR 211210Z AUTO 14005KT 10SM 09/06 A2995 RMK AO2
KDKR 211150Z AUTO 13004KT 10SM 09/06 A2996 RMK AO2
KDKR 211130Z AUTO 13004KT 10SM 09/06 A2996 RMK AO2
KDKR 211110Z AUTO 13004KT 10SM 09/06 A2996 RMK AO2
KDKR 211050Z AUTO 13005KT 10SM 08/05 A2996 RMK AO2
KDKR 211030Z AUTO 12003KT 10SM 08/06 A2997 RMK AO2
KDKR 211010Z AUTO 13003KT 10SM 08/06 A2997 RMK AO2
KDKR 210950Z AUTO 00000KT 10SM 08/05 A2998 RMK AO2
KDKR 210930Z AUTO 13003KT 10SM 08/06 A2998 RMK AO2
KDKR 210910Z AUTO 14003KT 10SM 08/05 A2998 RMK AO2
KDKR 210850Z AUTO 00000KT 10SM 08/05 A2998 RMK AO2
KDKR 210830Z AUTO 15003KT 10SM 08/05 A2998 RMK AO2
KDKR 210810Z AUTO 00000KT 10SM 08/05 A2999 RMK AO2
KDKR 210750Z AUTO 15004KT 10SM 08/05 A2999 RMK AO2
KDKR 210730Z AUTO 16004KT 10SM 08/05 A3001 RMK AO2
KDKR 210710Z AUTO 15004KT 10SM 08/05 A3001 RMK AO2
KDKR 210650Z AUTO 15003KT 10SM 08/05 A3002 RMK AO2
KDKR 210630Z AUTO 14004KT 10SM 08/05 A3002 RMK AO2
KDKR 210610Z AUTO 14003KT 10SM 08/05 A3003 RMK AO2
KDKR 210550Z AUTO 14003KT 10SM 09/05 A3005 RMK AO2
KDKR 210530Z AUTO 14003KT 10SM 09/05 A3005 RMK AO2
KDKR 210510Z AUTO 15004KT 10SM 09/05 A3004 RMK AO2
KDKR 210450Z AUTO 14003KT 10SM 09/05 A3006 RMK AO2
KDKR 210430Z AUTO 00000KT 10SM 09/05 A3006 RMK AO2
KDKR 210410Z AUTO 14003KT 10SM 09/05 A3005 RMK AO2
KDKR 210350Z AUTO 14003KT 10SM 10/05 A3006 RMK AO2
KDKR 210330Z AUTO 15004KT 10SM 10/05 A3006 RMK AO2
KDKR 210310Z AUTO 14003KT 10SM 10/05 A3006 RMK AO2
KDKR 210250Z AUTO 14003KT 10SM 10/05 A3007 RMK AO2
KDKR 210230Z AUTO 14004KT 10SM 10/05 A3007 RMK AO2
KDKR 210210Z AUTO 13004KT 10SM 11/05 A3007 RMK AO2
KDKR 210150Z AUTO 13004KT 10SM 12/05 A3007 RMK AO2
KDKR 210130Z AUTO 12004KT 10SM 12/05 A3007 RMK AO2
KDKR 210110Z AUTO 14004KT 10SM 12/05 A3007 RMK AO2
KDKR 210050Z AUTO 12004KT 10SM 12/05 A3007 RMK AO2
KDKR 210030Z AUTO 13004KT 10SM 13/05 A3007 RMK AO2
KDKR 210010Z AUTO 14005KT 10SM 13/05 A3008 RMK AO2
KDKR 202350Z AUTO 13004KT 10SM 13/05 A3008 RMK AO2
KDKR 202330Z AUTO 14004KT 10SM 14/05 A3008 RMK AO2
KDKR 202310Z AUTO 14003KT 10SM 15/05 A3008 RMK AO2
KDKR 202250Z AUTO 13003KT 10SM 16/05 A3009 RMK AO2
KDKR 202230Z AUTO 15003KT 10SM 17/04 A3009 RMK AO2
KDKR 202210Z AUTO 15005KT 10SM 17/04 A3008 RMK AO2
KDKR 202150Z AUTO 14005KT 10SM 17/04 A3008 RMK AO2
KDKR 202130Z AUTO 16005KT 10SM 17/03 A3009 RMK AO2
KDKR 202110Z AUTO 17005KT 10SM 18/03 A3009 RMK AO2
KDKR 202050Z AUTO 15006KT 10SM 18/02 A3010 RMK AO2
KDKR 202030Z AUTO 18010G14KT 10SM 18/02 A3010 RMK AO2
KDKR 202010Z AUTO 18008G14KT 140V220 10SM -RA 18/01 A3011 RMK AO2
KDKR 201950Z AUTO 18009KT 10SM 18/01 A3013 RMK AO2
KDKR 201930Z AUTO 18009KT 10SM -RA 17/00 A3014 RMK AO2
KDKR 201910Z AUTO 16007KT 10SM 17/02 A3016 RMK AO2
KDKR 201850Z AUTO 16008KT 130V200 10SM 17/01 A3018 RMK AO2
KDKR 201830Z AUTO 18008KT 10SM 16/01 A3019 RMK AO2
KDKR 201810Z AUTO 14007KT 10SM 15/02 A3020 RMK AO2
KDKR 201750Z AUTO 17005KT 10SM 15/01 A3023 RMK AO2
KDKR 201730Z AUTO 14005KT 10SM 15/00 A3024 RMK AO2
KDKR 201710Z AUTO 15006KT 10SM 14/01 A3025 RMK AO2
KDKR 201650Z AUTO 15007KT 10SM 14/00 A3026 RMK AO2
KDKR 201630Z AUTO 19006KT 10SM 14/00 A3027 RMK AO2
KDKR 201610Z AUTO 16008KT 10SM 13/00 A3027 RMK AO2 LTG DSNT S
KDKR 201550Z AUTO 16008KT 10SM 13/00 A3027 RMK AO2
KDKR 201530Z AUTO 16005KT 10SM 12/02 A3028 RMK AO2